Time;durP1;ratioP1;P1;durP2;ratioP2;P2;SDS_P1;SDS_P2;PMS_P1;PMS_P2;Temp;Humidity;BMP_temperature;BMP_pressure;BME280_temperature;BME280_humidity;BME280_pressure;Samples;Min_cycle;Max_cycle;Signal;HPM_P1;HPM_P2
2021/12/25 00:00:14;;;;;;;15.13;6.30;;;;;;;4.73;100.00;95339.69;5042623;28;20403;-72
2021/12/25 00:02:40;;;;;;;22.58;6.35;;;;;;;4.72;100.00;95335.41;5043188;28;20049;-72
2021/12/25 00:05:07;;;;;;;23.38;6.45;;;;;;;4.69;100.00;95341.22;5043388;28;20045;-71
2021/12/25 00:07:33;;;;;;;16.20;6.47;;;;;;;4.69;100.00;95340.41;5044060;28;20029;-73
2021/12/25 00:10:01;;;;;;;13.32;6.60;;;;;;;4.71;100.00;95343.63;5044467;28;20241;-74
2021/12/25 00:12:27;;;;;;;13.50;6.35;;;;;;;4.67;100.00;95340.66;5044052;28;20039;-72
2021/12/25 00:14:54;;;;;;;14.68;6.78;;;;;;;4.69;100.00;95341.22;5043094;28;20045;-74
2021/12/25 00:17:19;;;;;;;14.18;6.25;;;;;;;4.71;100.00;95344.41;5043301;28;20065;-71
2021/12/25 00:19:45;;;;;;;16.25;6.75;;;;;;;4.72;100.00;95353.16;5042902;28;20706;-72
2021/12/25 00:22:11;;;;;;;16.42;6.50;;;;;;;4.72;100.00;95343.38;5040828;28;20391;-72
2021/12/25 00:24:42;;;;;;;16.75;7.05;;;;;;;4.73;100.00;95342.31;5042935;28;20037;-72
2021/12/25 00:27:32;;;;;;;17.52;8.50;;;;;;;4.61;100.00;95338.94;5041867;28;20098;-72
2021/12/25 00:30:10;;;;;;;14.55;6.93;;;;;;;4.53;100.00;95338.53;5042738;28;20064;-71
2021/12/25 00:32:51;;;;;;;15.40;7.47;;;;;;;4.45;100.00;95331.78;5042731;28;20514;-71
2021/12/25 00:35:16;;;;;;;20.77;8.98;;;;;;;4.42;100.00;95333.03;5042016;28;20040;-71
2021/12/25 00:37:42;;;;;;;19.20;8.32;;;;;;;4.41;100.00;95331.41;5041798;28;20424;-72
2021/12/25 00:40:10;;;;;;;24.58;9.35;;;;;;;4.36;100.00;95333.19;5042054;28;20493;-72
2021/12/25 00:42:36;;;;;;;20.08;8.98;;;;;;;4.47;100.00;95327.84;5043992;28;20072;-72
2021/12/25 00:45:02;;;;;;;22.02;9.38;;;;;;;4.55;100.00;95323.19;5042901;28;20061;-72
2021/12/25 00:47:29;;;;;;;21.50;9.13;;;;;;;4.54;100.00;95322.38;5032333;28;20383;-72
2021/12/25 00:49:54;;;;;;;20.38;9.05;;;;;;;4.67;100.00;95319.44;5040672;28;20060;-72
2021/12/25 00:52:20;;;;;;;23.15;8.23;;;;;;;4.69;100.00;95322.66;5025546;28;20049;-73
2021/12/25 00:54:46;;;;;;;20.17;7.53;;;;;;;4.71;100.00;95319.75;5042434;28;20047;-72
2021/12/25 00:57:11;;;;;;;21.42;8.00;;;;;;;4.73;100.00;95320.31;5026472;28;20053;-72
2021/12/25 00:59:37;;;;;;;15.98;7.93;;;;;;;4.78;100.00;95323.06;5025358;28;20108;-72
2021/12/25 01:02:03;;;;;;;46.50;13.70;;;;;;;4.77;100.00;95324.13;5039426;28;20147;-72
2021/12/25 01:04:29;;;;;;;27.85;10.60;;;;;;;4.84;100.00;95318.66;5041334;28;20083;-73
2021/12/25 01:06:55;;;;;;;15.15;7.47;;;;;;;4.88;100.00;95325.88;5041041;28;20516;-71
2021/12/25 01:09:21;;;;;;;13.60;7.22;;;;;;;4.91;100.00;95320.13;5024914;28;20525;-72
2021/12/25 01:11:49;;;;;;;17.13;8.43;;;;;;;4.92;100.00;95324.38;5025460;28;20443;-72
2021/12/25 01:17:47;;;;;;;14.02;7.72;;;;;;;4.97;100.00;95326.28;5039776;28;20091;-72
2021/12/25 01:20:43;;;;;;;19.77;8.10;;;;;;;4.98;100.00;95323.41;5039641;28;20033;-72
2021/12/25 01:37:43;;;;;;;18.67;7.18;;;;;;;4.78;100.00;95301.06;4925710;28;20495;-72
2021/12/25 01:49:09;;;;;;;17.92;7.20;;;;;;;4.88;100.00;95319.78;5040770;28;20472;-72
2021/12/25 01:51:35;;;;;;;17.45;6.80;;;;;;;4.77;100.00;95310.88;5043328;28;20017;-72
2021/12/25 01:54:01;;;;;;;24.33;6.47;;;;;;;4.72;100.00;95310.78;5031072;28;20037;-72
2021/12/25 01:56:27;;;;;;;11.82;6.78;;;;;;;4.68;100.00;95312.31;5039746;28;20025;-72
2021/12/25 01:58:52;;;;;;;20.58;7.25;;;;;;;4.64;100.00;95316.47;5013496;28;20138;-73
2021/12/25 02:01:19;;;;;;;16.75;7.13;;;;;;;4.63;100.00;95318.31;5040004;28;20040;-72
2021/12/25 02:03:45;;;;;;;20.38;7.35;;;;;;;4.62;100.00;95310.59;5026818;28;20038;-72
2021/12/25 02:06:12;;;;;;;18.77;6.80;;;;;;;4.62;100.00;95315.91;5041664;28;20048;-71
2021/12/25 02:08:41;;;;;;;19.98;7.65;;;;;;;4.57;100.00;95316.59;5038969;28;20021;-72
2021/12/25 02:11:07;;;;;;;13.98;6.72;;;;;;;4.62;100.00;95318.56;5022996;28;20112;-72
2021/12/25 02:13:33;;;;;;;14.88;7.15;;;;;;;4.70;100.00;95318.97;5024284;28;20438;-72
2021/12/25 02:16:00;;;;;;;15.13;7.25;;;;;;;4.71;100.00;95309.97;5039123;28;20082;-72
2021/12/25 02:18:53;;;;;;;12.88;6.95;;;;;;;4.70;100.00;95297.75;5014425;28;20060;-72
2021/12/25 02:21:39;;;;;;;14.13;6.13;;;;;;;4.67;100.00;95295.59;5039785;28;20025;-74
2021/12/25 02:24:07;;;;;;;16.95;7.32;;;;;;;4.68;100.00;95299.84;5037973;28;20090;-72
2021/12/25 02:26:34;;;;;;;17.38;7.70;;;;;;;4.69;100.00;95290.06;5039850;28;20045;-72
2021/12/25 02:29:00;;;;;;;11.90;6.40;;;;;;;4.72;100.00;95295.66;5028826;28;20804;-72
2021/12/25 02:31:25;;;;;;;16.60;7.57;;;;;;;4.73;100.00;95291.97;5040468;28;20025;-71
2021/12/25 02:33:52;;;;;;;19.05;7.70;;;;;;;4.72;100.00;95286.91;5014255;28;20179;-72
2021/12/25 02:36:18;;;;;;;16.15;7.80;;;;;;;4.64;100.00;95296.06;5023359;28;20068;-72
2021/12/25 02:38:45;;;;;;;18.25;6.47;;;;;;;4.46;100.00;95296.28;5025806;28;20048;-72
2021/12/25 02:41:12;;;;;;;20.02;7.35;;;;;;;4.21;100.00;95290.53;5023308;28;20056;-72
2021/12/25 02:43:39;;;;;;;20.45;7.38;;;;;;;4.13;100.00;95297.81;5025506;28;20052;-71
2021/12/25 02:46:06;;;;;;;17.75;6.70;;;;;;;4.19;100.00;95293.38;5025988;28;20060;-72
2021/12/25 02:48:34;;;;;;;19.55;7.88;;;;;;;4.32;100.00;95289.66;5044795;28;20052;-72
2021/12/25 02:51:01;;;;;;;21.70;7.53;;;;;;;4.42;100.00;95287.19;5042858;28;20038;-72
2021/12/25 02:53:26;;;;;;;17.17;8.70;;;;;;;4.48;100.00;95299.50;5026337;28;20040;-73
2021/12/25 02:55:52;;;;;;;19.02;7.43;;;;;;;4.38;100.00;95291.38;5026813;28;20035;-73
2021/12/25 02:58:20;;;;;;;18.95;8.13;;;;;;;4.34;100.00;95285.72;5043251;28;20036;-72
2021/12/25 03:00:52;;;;;;;21.15;9.35;;;;;;;4.31;100.00;95286.22;5042746;28;20049;-72
2021/12/25 03:03:18;;;;;;;19.63;7.40;;;;;;;4.37;100.00;95295.06;5043723;28;20099;-71
2021/12/25 03:05:44;;;;;;;16.40;7.97;;;;;;;4.44;100.00;95288.59;5043630;28;20415;-72
2021/12/25 03:08:12;;;;;;;17.77;7.13;;;;;;;4.49;100.00;95285.19;5041180;28;20049;-71
2021/12/25 03:10:52;;;;;;;21.30;7.47;;;;;;;4.48;100.00;95286.25;5027161;28;20460;-72
2021/12/25 03:13:31;;;;;;;16.00;7.35;;;;;;;4.51;100.00;95279.66;5044860;28;20033;-74
2021/12/25 03:15:58;;;;;;;16.75;7.57;;;;;;;4.52;100.00;95279.44;5041714;28;20041;-71
2021/12/25 03:18:27;;;;;;;14.60;7.00;;;;;;;4.60;100.00;95279.06;5042039;28;20033;-73
2021/12/25 03:20:58;;;;;;;16.02;6.40;;;;;;;4.53;100.00;95286.34;5044100;28;20481;-72
2021/12/25 03:23:26;;;;;;;16.13;6.55;;;;;;;4.38;100.00;95286.06;5041983;28;20037;-72
2021/12/25 03:25:53;;;;;;;22.98;7.32;;;;;;;4.34;100.00;95282.28;5025186;28;20044;-72
2021/12/25 03:28:22;;;;;;;17.33;7.15;;;;;;;4.23;100.00;95283.94;5042200;28;20033;-73
2021/12/25 03:30:49;;;;;;;16.17;7.13;;;;;;;4.14;100.00;95280.06;5043744;28;20056;-74
2021/12/25 03:33:17;;;;;;;19.52;6.70;;;;;;;4.15;100.00;95279.84;5033141;28;20047;-72
2021/12/25 03:35:43;;;;;;;22.40;7.72;;;;;;;4.10;100.00;95279.72;5044479;28;20033;-72
2021/12/25 03:38:12;;;;;;;23.20;9.25;;;;;;;4.11;100.00;95283.97;5042146;28;20045;-72
2021/12/25 03:40:38;;;;;;;27.73;8.13;;;;;;;4.06;100.00;95283.09;5042541;28;20036;-72
2021/12/25 03:43:05;;;;;;;21.58;7.00;;;;;;;3.98;100.00;95289.56;5033187;28;20051;-72
2021/12/25 03:45:32;;;;;;;16.48;7.80;;;;;;;3.94;100.00;95293.72;5044474;28;20036;-71
2021/12/25 03:48:26;;;;;;;21.40;8.07;;;;;;;3.89;100.00;95285.66;5025210;28;20302;-73
2021/12/25 03:59:06;;;;;;;17.92;7.55;;;;;;;3.87;100.00;95291.19;5042322;28;20071;-72
2021/12/25 04:01:44;;;;;;;16.38;7.40;;;;;;;3.90;100.00;95282.00;5042842;28;20633;-71
2021/12/25 04:04:18;;;;;;;11.88;6.15;;;;;;;3.94;100.00;95282.31;5042724;28;20120;-72
2021/12/25 04:07:06;;;;;;;6.85;3.05;;;;;;;3.84;100.00;95290.88;5019024;28;20040;-72
2021/12/25 04:09:34;;;;;;;4.40;2.05;;;;;;;3.70;100.00;95289.53;5026609;28;20072;-72
2021/12/25 04:12:03;;;;;;;5.60;2.50;;;;;;;3.66;100.00;95291.00;5027212;28;20026;-71
2021/12/25 04:14:32;;;;;;;4.43;2.05;;;;;;;3.53;100.00;95292.88;5020029;28;20575;-74
2021/12/25 04:16:57;;;;;;;5.35;1.42;;;;;;;3.39;100.00;95286.22;5027127;28;20039;-72
2021/12/25 04:19:23;;;;;;;3.65;1.58;;;;;;;3.28;100.00;95290.50;5042610;28;20367;-71
2021/12/25 04:24:18;;;;;;;3.22;1.20;;;;;;;3.23;100.00;95292.22;5042306;28;20463;-74
2021/12/25 04:26:46;;;;;;;4.60;1.30;;;;;;;3.22;100.00;95296.72;5030140;28;20048;-73
2021/12/25 04:29:34;;;;;;;2.40;1.10;;;;;;;3.09;100.00;95283.72;5042899;28;20488;-71
2021/12/25 04:32:52;;;;;;;3.45;1.30;;;;;;;3.05;100.00;95290.50;5042201;28;20037;-72
2021/12/25 05:05:19;;;;;;;1.63;0.77;;;;;;;2.32;100.00;95304.81;5024520;28;20051;-72
2021/12/25 05:08:00;;;;;;;1.98;0.80;;;;;;;2.37;100.00;95307.59;5037287;28;20506;-71
2021/12/25 05:10:25;;;;;;;2.75;1.23;;;;;;;2.31;100.00;95312.97;5041280;28;20037;-71
2021/12/25 05:12:51;;;;;;;5.65;1.00;;;;;;;2.35;100.00;95312.31;5033333;28;20041;-73
2021/12/25 05:15:17;;;;;;;2.08;0.93;;;;;;;2.31;100.00;95305.06;5023991;28;20487;-71
2021/12/25 05:17:43;;;;;;;2.08;0.73;;;;;;;2.24;100.00;95305.94;5040352;28;20041;-71
2021/12/25 05:20:09;;;;;;;1.70;0.80;;;;;;;2.11;100.00;95306.16;5023226;28;20483;-71
2021/12/25 05:22:34;;;;;;;2.42;0.60;;;;;;;1.94;100.00;95311.19;5026295;28;20466;-72
2021/12/25 05:25:02;;;;;;;1.60;0.70;;;;;;;1.94;100.00;95315.69;5040888;28;20439;-72
2021/12/25 05:27:30;;;;;;;2.47;0.70;;;;;;;1.96;100.00;95308.38;5040241;28;20361;-71
2021/12/25 05:29:56;;;;;;;1.58;0.70;;;;;;;1.95;100.00;95304.94;5041373;28;20040;-72
2021/12/25 05:32:35;;;;;;;2.33;0.70;;;;;;;1.90;100.00;95314.53;5039676;28;20037;-71
2021/12/25 05:35:19;;;;;;;1.75;0.80;;;;;;;1.85;100.00;95301.19;5042167;28;20128;-71
2021/12/25 05:38:15;;;;;;;1.55;0.63;;;;;;;1.91;100.00;95308.22;5029827;28;20045;-72
2021/12/25 05:40:53;;;;;;;1.75;0.70;;;;;;;1.79;100.00;95302.06;5026724;28;20086;-72
2021/12/25 05:43:19;;;;;;;1.63;0.73;;;;;;;1.87;100.00;95321.06;5037588;28;20055;-71
2021/12/25 05:45:45;;;;;;;1.73;0.90;;;;;;;1.76;100.00;95310.44;5021583;28;20495;-71
2021/12/25 05:48:20;;;;;;;2.03;0.80;;;;;;;1.76;100.00;95316.50;5020996;28;20047;-73
2021/12/25 05:50:51;;;;;;;2.00;0.60;;;;;;;1.65;100.00;95304.88;5022035;28;20041;-73
2021/12/25 05:53:23;;;;;;;2.42;0.80;;;;;;;1.64;100.00;95305.09;5022083;28;20068;-73
2021/12/25 05:56:07;;;;;;;6.35;2.40;;;;;;;1.69;100.00;95313.13;5021277;28;20091;-71
2021/12/25 05:58:58;;;;;;;1.60;0.45;;;;;;;1.59;100.00;95312.84;5020907;28;20045;-71
2021/12/25 06:01:43;;;;;;;0.35;0.22;;;;;;;1.58;100.00;95308.63;5010719;28;20037;-72
2021/12/25 06:04:11;;;;;;;1.30;0.40;;;;;;;1.56;100.00;95308.84;5017666;28;20038;-71
2021/12/25 06:06:36;;;;;;;2.10;0.60;;;;;;;1.61;100.00;95316.06;5019508;28;20512;-72
2021/12/25 06:09:07;;;;;;;0.65;0.30;;;;;;;1.53;100.00;95313.72;5036793;28;20033;-72
2021/12/25 06:11:34;;;;;;;0.65;0.35;;;;;;;1.35;100.00;95315.34;5021725;28;20108;-72
2021/12/25 06:14:09;;;;;;;0.70;0.38;;;;;;;1.37;100.00;95310.66;5022140;28;20037;-72
2021/12/25 06:16:47;;;;;;;0.45;0.30;;;;;;;1.30;100.00;95320.44;5036096;28;20052;-72
2021/12/25 06:19:39;;;;;;;0.70;0.40;;;;;;;1.28;100.00;95321.69;5020588;28;20077;-71
2021/12/25 06:22:34;;;;;;;4.80;1.48;;;;;;;1.31;100.00;95323.88;5003528;28;20559;-71
2021/12/25 06:25:19;;;;;;;4.38;1.05;;;;;;;1.31;100.00;95321.25;5023121;28;20045;-71
2021/12/25 06:27:48;;;;;;;1.83;0.60;;;;;;;1.28;100.00;95317.22;5023658;28;20056;-71
2021/12/25 06:30:22;;;;;;;1.90;0.60;;;;;;;1.24;100.00;95321.31;5025782;28;20108;-71
2021/12/25 06:33:01;;;;;;;3.38;1.10;;;;;;;1.23;100.00;95319.69;5023208;28;20498;-72
2021/12/25 06:35:44;;;;;;;0.90;0.40;;;;;;;1.12;100.00;95330.97;5025876;28;20068;-73
2021/12/25 06:38:30;;;;;;;1.63;0.60;;;;;;;1.13;100.00;95332.56;5011879;28;20500;-71
2021/12/25 06:41:03;;;;;;;2.30;0.50;;;;;;;1.14;100.00;95328.91;5025794;28;20060;-72
2021/12/25 06:43:29;;;;;;;1.92;0.70;;;;;;;1.14;100.00;95331.56;5024084;28;20524;-71
2021/12/25 06:45:55;;;;;;;0.65;0.30;;;;;;;1.18;100.00;95326.66;5017194;28;20078;-71
2021/12/25 06:48:22;;;;;;;2.22;0.60;;;;;;;1.06;100.00;95334.47;5014408;28;20057;-71
2021/12/25 06:51:23;;;;;;;3.47;0.73;;;;;;;1.06;100.00;95321.28;4966549;28;20604;-71
2021/12/25 06:53:59;;;;;;;1.00;0.40;;;;;;;0.99;100.00;95323.19;4998065;28;20512;-71
2021/12/25 06:56:36;;;;;;;0.82;0.40;;;;;;;1.07;100.00;95336.06;5006228;28;20497;-73
2021/12/25 06:59:04;;;;;;;1.35;0.45;;;;;;;0.95;100.00;95340.44;4999164;28;20057;-71
2021/12/25 07:01:33;;;;;;;1.35;0.60;;;;;;;0.99;100.00;95344.25;5016907;28;20046;-72
2021/12/25 07:03:58;;;;;;;1.83;0.70;;;;;;;0.88;100.00;95344.97;5021048;28;20064;-71
2021/12/25 07:06:42;;;;;;;1.70;0.70;;;;;;;0.96;100.00;95344.69;5007344;28;20676;-72
2021/12/25 07:09:27;;;;;;;1.60;0.60;;;;;;;0.89;100.00;95354.47;5007269;28;20478;-72
2021/12/25 07:11:59;;;;;;;1.80;0.70;;;;;;;0.78;100.00;95355.97;5021419;28;20068;-71
2021/12/25 07:14:51;;;;;;;2.42;1.10;;;;;;;0.81;100.00;95361.63;5000460;28;20069;-71
2021/12/25 07:17:40;;;;;;;2.40;1.00;;;;;;;0.71;100.00;95361.28;5007457;28;20137;-71
2021/12/25 07:20:19;;;;;;;2.70;1.27;;;;;;;0.70;100.00;95370.22;5020257;28;20084;-72
2021/12/25 07:23:03;;;;;;;3.65;1.20;;;;;;;0.68;100.00;95371.44;5020303;28;20428;-71
2021/12/25 07:25:48;;;;;;;3.33;1.52;;;;;;;0.55;100.00;95367.06;5021580;28;20053;-71
2021/12/25 07:28:34;;;;;;;2.63;1.13;;;;;;;0.51;100.00;95376.41;5007064;28;20053;-73
2021/12/25 07:31:01;;;;;;;2.28;0.95;;;;;;;0.48;100.00;95387.38;5003310;28;20042;-73
2021/12/25 07:33:28;;;;;;;2.53;1.10;;;;;;;0.51;100.00;95387.72;5005323;28;20394;-71
2021/12/25 07:35:55;;;;;;;3.20;1.30;;;;;;;0.50;100.00;95380.06;5006826;28;20321;-71
2021/12/25 07:38:21;;;;;;;3.92;1.30;;;;;;;0.53;100.00;95390.16;5006256;28;20065;-71
2021/12/25 07:40:47;;;;;;;2.47;1.10;;;;;;;0.56;100.00;95397.66;5006255;28;20096;-71
2021/12/25 07:43:13;;;;;;;1.88;0.90;;;;;;;0.52;100.00;95393.81;5019183;28;20052;-71
2021/12/25 07:45:59;;;;;;;2.28;1.00;;;;;;;0.53;100.00;95390.94;5043850;28;20091;-72
2021/12/25 07:48:26;;;;;;;2.65;0.98;;;;;;;0.54;100.00;95394.38;5045266;28;20408;-72
2021/12/25 07:50:53;;;;;;;2.75;1.10;;;;;;;0.58;100.00;95403.50;5044193;28;20395;-71
2021/12/25 07:53:19;;;;;;;2.25;1.05;;;;;;;0.45;100.00;95401.72;5043801;28;20032;-71
2021/12/25 07:55:49;;;;;;;2.38;0.90;;;;;;;0.44;100.00;95413.28;5045410;28;20438;-72
2021/12/25 07:58:17;;;;;;;2.38;1.17;;;;;;;0.59;100.00;95417.47;5043521;28;20048;-71
2021/12/25 08:00:44;;;;;;;1.10;0.60;;;;;;;0.30;100.00;95424.88;5044324;28;20748;-71
2021/12/25 08:03:11;;;;;;;2.88;0.80;;;;;;;0.37;100.00;95424.88;5043242;28;20591;-71
2021/12/25 08:05:36;;;;;;;3.20;1.02;;;;;;;0.43;100.00;95424.03;5045560;28;20496;-71
2021/12/25 08:08:03;;;;;;;3.22;1.30;;;;;;;0.41;100.00;95428.69;5043632;28;20064;-71
2021/12/25 08:10:29;;;;;;;3.38;1.35;;;;;;;0.35;100.00;95426.91;5042594;28;20078;-72
2021/12/25 08:12:57;;;;;;;3.20;1.25;;;;;;;0.31;100.00;95439.66;4952621;28;20032;-71
2021/12/25 08:15:25;;;;;;;1.65;0.75;;;;;;;0.35;100.00;95427.72;335194;28;10022919;-70
2021/12/25 08:17:52;;;;;;;2.38;1.02;;;;;;;0.39;100.00;95435.97;5043047;28;20064;-71
2021/12/25 08:20:34;;;;;;;2.13;1.00;;;;;;;0.41;100.00;95428.69;5044335;28;20490;-71
2021/12/25 08:23:18;;;;;;;1.90;0.80;;;;;;;0.39;100.00;95430.72;5043958;28;20044;-70
2021/12/25 08:26:04;;;;;;;2.35;0.98;;;;;;;0.32;100.00;95432.59;5043420;28;20384;-70
2021/12/25 08:28:47;;;;;;;3.80;1.40;;;;;;;0.54;100.00;95425.97;5044758;28;20565;-70
2021/12/25 08:31:32;;;;;;;2.65;1.17;;;;;;;0.58;100.00;95432.47;5043231;28;20068;-71
2021/12/25 08:34:00;;;;;;;2.55;1.02;;;;;;;0.55;100.00;95436.31;5044985;28;20091;-71
2021/12/25 08:36:58;;;;;;;2.65;1.27;;;;;;;0.42;100.00;95441.66;5035145;28;20048;-71
2021/12/25 08:39:23;;;;;;;2.47;1.20;;;;;;;0.25;100.00;95436.06;5043516;28;20728;-71
2021/12/25 08:41:49;;;;;;;2.60;1.30;;;;;;;0.35;100.00;95443.50;5043659;28;20025;-70
2021/12/25 08:47:00;;;;;;;3.03;1.50;;;;;;;0.35;100.00;95445.31;5041670;28;20041;-71
2021/12/25 08:49:29;;;;;;;3.20;1.48;;;;;;;0.43;100.00;95463.50;5043518;28;20191;-72
2021/12/25 08:51:56;;;;;;;2.88;1.15;;;;;;;0.53;100.00;95455.97;5042842;28;20045;-70
2021/12/25 08:54:22;;;;;;;2.47;1.33;;;;;;;0.63;100.00;95455.53;5041885;28;20466;-72
2021/12/25 08:56:48;;;;;;;2.72;1.20;;;;;;;0.75;100.00;95462.53;5043138;28;20043;-71
2021/12/25 08:59:13;;;;;;;2.13;1.00;;;;;;;0.58;100.00;95474.59;5042436;28;20249;-70
2021/12/25 09:01:39;;;;;;;3.67;1.60;;;;;;;0.66;100.00;95471.72;5041108;28;20044;-71
2021/12/25 09:04:05;;;;;;;2.33;1.20;;;;;;;0.67;100.00;95465.41;5044332;28;20045;-72
2021/12/25 09:06:30;;;;;;;2.90;1.33;;;;;;;0.74;100.00;95475.91;5045146;28;20045;-71
2021/12/25 09:08:56;;;;;;;3.15;1.42;;;;;;;0.81;100.00;95474.06;5040325;28;20051;-72
2021/12/25 09:11:21;;;;;;;3.60;1.80;;;;;;;0.83;100.00;95472.81;5042658;28;20071;-72
2021/12/25 09:13:48;;;;;;;2.83;1.35;;;;;;;0.70;100.00;95478.19;5043827;28;20094;-71
2021/12/25 09:16:14;;;;;;;2.75;1.45;;;;;;;0.78;100.00;95470.03;5041095;28;20151;-72
2021/12/25 09:18:40;;;;;;;3.25;1.30;;;;;;;0.70;100.00;95472.91;5024580;28;20095;-71
2021/12/25 09:21:06;;;;;;;3.28;1.50;;;;;;;0.78;100.00;95474.50;5042613;28;20488;-71
2021/12/25 09:23:34;;;;;;;2.53;1.23;;;;;;;0.82;100.00;95479.13;5040779;28;20035;-71
2021/12/25 09:25:59;;;;;;;3.30;1.70;;;;;;;0.73;100.00;95487.47;5040888;28;20059;-70
2021/12/25 09:28:25;;;;;;;2.75;1.42;;;;;;;0.64;100.00;95486.91;5041635;28;20484;-70
2021/12/25 09:30:50;;;;;;;2.22;1.10;;;;;;;0.56;100.00;95481.88;5039536;28;20048;-70
2021/12/25 09:33:16;;;;;;;2.42;0.98;;;;;;;0.55;100.00;95482.91;5039017;28;20037;-72
2021/12/25 09:35:42;;;;;;;3.85;1.40;;;;;;;0.53;100.00;95496.25;5040708;28;20553;-72
2021/12/25 09:38:07;;;;;;;2.78;1.27;;;;;;;0.47;100.00;95491.03;5037960;28;20037;-71
2021/12/25 09:40:33;;;;;;;2.72;1.15;;;;;;;0.40;100.00;95506.06;5041431;28;20033;-71
2021/12/25 09:42:59;;;;;;;3.05;1.40;;;;;;;0.35;100.00;95505.84;5040408;28;20522;-70
2021/12/25 09:45:24;;;;;;;3.13;1.50;;;;;;;0.48;100.00;95496.09;5042086;28;20047;-72
2021/12/25 09:47:50;;;;;;;3.65;1.17;;;;;;;0.58;100.00;95494.84;5041369;28;20119;-70
2021/12/25 09:50:16;;;;;;;2.60;1.20;;;;;;;0.42;100.00;95510.09;5042497;28;20044;-70
2021/12/25 09:52:45;;;;;;;3.30;1.50;;;;;;;0.39;100.00;95494.72;5042627;28;20048;-71
2021/12/25 09:55:13;;;;;;;1.67;0.80;;;;;;;0.14;100.00;95497.19;5041568;28;20036;-70
2021/12/25 09:57:39;;;;;;;3.60;1.30;;;;;;;0.13;100.00;95500.03;5041291;28;20033;-71
2021/12/25 10:00:17;;;;;;;2.13;0.93;;;;;;;0.26;100.00;95495.56;5041243;28;20116;-71
2021/12/25 10:02:47;;;;;;;2.08;0.90;;;;;;;0.20;100.00;95499.00;5041771;28;20037;-72
2021/12/25 10:05:23;;;;;;;2.88;1.15;;;;;;;0.28;100.00;95501.41;5040929;28;20049;-72
2021/12/25 10:08:04;;;;;;;3.42;1.40;;;;;;;0.30;100.00;95493.31;5040439;28;20045;-71
2021/12/25 10:11:01;;;;;;;3.20;0.90;;;;;;;0.33;100.00;95500.81;5041699;28;20033;-71
2021/12/25 10:13:31;;;;;;;1.98;0.93;;;;;;;0.25;100.00;95496.59;5042112;28;20056;-71
2021/12/25 10:16:02;;;;;;;2.20;0.93;;;;;;;0.15;100.00;95501.44;5042429;28;20206;-71
2021/12/25 10:18:34;;;;;;;2.17;1.05;;;;;;;0.35;100.00;95490.06;5042174;28;20502;-71
2021/12/25 10:21:26;;;;;;;2.30;1.30;;;;;;;0.37;100.00;95488.84;5041731;28;20037;-71
2021/12/25 10:24:07;;;;;;;3.60;1.60;;;;;;;0.33;100.00;95490.28;5039354;28;20068;-71
2021/12/25 10:26:38;;;;;;;1.92;0.93;;;;;;;0.27;100.00;95486.66;5042670;28;20062;-71
2021/12/25 10:29:24;;;;;;;2.50;1.30;;;;;;;0.35;100.00;95484.81;5042670;28;20037;-70
2021/12/25 10:31:58;;;;;;;4.22;2.00;;;;;;;0.68;100.00;95487.28;5041896;28;20358;-70
2021/12/25 10:34:27;;;;;;;4.03;1.88;;;;;;;0.68;100.00;95487.28;5042558;28;20036;-70
2021/12/25 10:36:53;;;;;;;3.53;1.38;;;;;;;0.58;100.00;95490.38;5040255;28;20076;-71
2021/12/25 10:39:22;;;;;;;2.45;1.15;;;;;;;0.61;100.00;95489.94;5024071;28;20045;-71
2021/12/25 10:42:02;;;;;;;2.78;1.30;;;;;;;0.67;100.00;95481.22;5041284;28;20029;-71
2021/12/25 10:44:32;;;;;;;2.33;1.00;;;;;;;0.82;100.00;95487.00;5042074;28;20056;-71
2021/12/25 10:47:00;;;;;;;2.45;1.00;;;;;;;0.70;100.00;95488.72;5039934;28;20072;-71
2021/12/25 10:49:28;;;;;;;4.47;1.70;;;;;;;0.93;100.00;95484.72;5042098;28;20044;-72
2021/12/25 10:51:55;;;;;;;4.20;2.00;;;;;;;1.24;100.00;95479.44;5040568;28;20307;-72
2021/12/25 10:54:59;;;;;;;5.35;2.50;;;;;;;1.24;100.00;95476.00;5040993;28;20041;-71
2021/12/25 10:57:34;;;;;;;4.18;2.20;;;;;;;1.08;100.00;95485.22;5038396;28;20077;-71
2021/12/25 11:00:05;;;;;;;3.17;1.42;;;;;;;0.92;100.00;95485.75;5040334;28;20061;-71
2021/12/25 11:02:34;;;;;;;4.38;1.90;;;;;;;0.84;100.00;95474.44;5041351;28;20037;-71
2021/12/25 11:05:00;;;;;;;4.60;1.92;;;;;;;0.74;100.00;95489.91;5041009;28;20037;-70
2021/12/25 11:07:26;;;;;;;2.85;1.20;;;;;;;0.68;100.00;95492.56;5042460;28;20043;-71
2021/12/25 11:10:06;;;;;;;3.50;1.40;;;;;;;0.47;100.00;95493.69;5043573;28;20045;-71
2021/12/25 11:12:34;;;;;;;3.45;1.88;;;;;;;0.47;100.00;95491.03;5045019;28;20047;-72
2021/12/25 11:15:25;;;;;;;3.88;2.10;;;;;;;0.38;100.00;95489.63;5044774;28;20075;-70
2021/12/25 11:17:53;;;;;;;5.45;2.90;;;;;;;0.38;100.00;95502.78;5044032;28;20342;-71
2021/12/25 11:20:39;;;;;;;3.67;1.30;;;;;;;0.39;100.00;95499.97;5044901;28;20025;-71
2021/12/25 11:23:08;;;;;;;4.45;1.67;;;;;;;0.67;100.00;95506.75;5042588;28;20170;-71
2021/12/25 11:25:35;;;;;;;3.63;1.23;;;;;;;0.55;100.00;95490.81;5045031;28;20025;-72
2021/12/25 11:28:06;;;;;;;3.22;1.48;;;;;;;0.68;100.00;95496.00;5027114;28;20099;-71
2021/12/25 11:30:34;;;;;;;3.22;1.60;;;;;;;0.63;100.00;95500.28;5044075;28;20041;-71
2021/12/25 11:33:00;;;;;;;2.92;1.42;;;;;;;0.56;100.00;95492.41;5042261;28;20044;-70
2021/12/25 11:35:29;;;;;;;3.78;2.40;;;;;;;0.73;100.00;95496.19;5044818;28;20044;-71
2021/12/25 11:37:55;;;;;;;4.55;1.65;;;;;;;0.64;100.00;95484.28;5040925;28;20033;-71
2021/12/25 11:40:27;;;;;;;4.30;1.83;;;;;;;0.49;100.00;95495.06;5031711;28;20367;-71
2021/12/25 11:42:57;;;;;;;3.88;2.03;;;;;;;0.43;100.00;95498.53;5045524;28;20114;-70
2021/12/25 11:45:32;;;;;;;2.83;1.38;;;;;;;0.39;100.00;95512.31;5045405;28;20045;-71
2021/12/25 11:48:16;;;;;;;3.35;1.60;;;;;;;0.58;100.00;95510.63;5043504;28;20438;-71
2021/12/25 11:50:46;;;;;;;3.10;1.70;;;;;;;0.21;100.00;95512.97;5043987;28;20036;-71
2021/12/25 11:53:30;;;;;;;3.67;1.70;;;;;;;0.05;100.00;95506.34;5044761;28;20050;-70
2021/12/25 11:56:48;;;;;;;2.83;1.48;;;;;;;0.13;100.00;95511.38;5043435;28;20695;-70
2021/12/25 11:58:52;;;;;;;;;;;;;;;0.19;100.00;95507.13;5037478;28;20068;-70
2021/12/25 12:01:29;;;;;;;5.97;2.20;;;;;;;0.10;100.00;95503.91;5044244;28;20249;-71
2021/12/25 12:04:10;;;;;;;6.68;3.10;;;;;;;0.20;100.00;95512.16;5042050;28;20049;-72
2021/12/25 12:06:48;;;;;;;3.22;1.50;;;;;;;-0.08;100.00;95501.09;5042248;28;20064;-71
2021/12/25 12:09:22;;;;;;;2.90;1.55;;;;;;;-0.16;100.00;95498.69;5042013;28;20040;-71
2021/12/25 12:12:21;;;;;;;3.15;1.20;;;;;;;-0.27;100.00;95508.00;5044156;28;20480;-70
2021/12/25 12:15:15;;;;;;;2.92;1.50;;;;;;;-0.26;100.00;95498.28;5044284;28;20108;-71
2021/12/25 12:18:27;;;;;;;4.78;2.17;;;;;;;-0.13;100.00;95503.53;5006684;28;20361;-71
2021/12/25 12:20:59;;;;;;;4.75;1.63;;;;;;;-0.03;100.00;95501.28;5043449;28;20067;-70
2021/12/25 12:23:40;;;;;;;3.05;1.33;;;;;;;-0.07;100.00;95492.22;5043016;28;20032;-70
2021/12/25 12:26:10;;;;;;;3.17;1.05;;;;;;;-0.32;100.00;95498.09;5043153;28;20098;-72
2021/12/25 12:28:42;;;;;;;2.78;1.35;;;;;;;-0.43;100.00;95509.22;5043803;28;20032;-71
2021/12/25 12:31:07;;;;;;;3.67;1.63;;;;;;;-0.37;100.00;95505.78;5042361;28;20045;-72
2021/12/25 12:33:34;;;;;;;5.28;2.75;;;;;;;-0.38;100.00;95506.81;5043824;28;20493;-71
2021/12/25 12:36:00;;;;;;;3.30;1.80;;;;;;;-0.20;100.00;95502.75;5043169;28;20021;-70
2021/12/25 12:38:38;;;;;;;3.55;2.00;;;;;;;-0.39;100.00;95507.81;5041871;28;20395;-70
2021/12/25 12:41:10;;;;;;;2.80;1.58;;;;;;;-0.60;100.00;95510.66;5042857;28;20538;-71
2021/12/25 12:44:03;;;;;;;3.70;1.98;;;;;;;-0.65;100.00;95510.44;5044012;28;20041;-71
2021/12/25 12:46:50;;;;;;;2.50;1.23;;;;;;;-0.71;100.00;95516.50;5043055;28;20112;-71
2021/12/25 12:49:18;;;;;;;3.33;1.60;;;;;;;-0.58;100.00;95517.31;5043321;28;20069;-70
2021/12/25 12:51:46;;;;;;;3.72;1.88;;;;;;;-0.66;100.00;95516.69;5043548;28;20043;-71
2021/12/25 12:54:38;;;;;;;3.55;1.83;;;;;;;-0.82;100.00;95519.72;5041554;28;20473;-71
2021/12/25 12:57:03;;;;;;;;;;;;;;;-0.68;100.00;95519.53;5042986;28;20041;-72
2021/12/25 12:59:43;;;;;;;3.65;1.48;;;;;;;-0.86;100.00;95519.28;5043363;28;19951;-70
2021/12/25 13:02:09;;;;;;;4.90;1.45;;;;;;;-0.91;100.00;95529.63;5042570;28;20049;-71
2021/12/25 13:04:42;;;;;;;4.60;2.00;;;;;;;-1.14;100.00;95527.34;5043250;28;20460;-70